Latest Weather Observations for Cocos Island

IDW60801

Issued at 7:03 pm WST Sunday 26 April 2015 (issued every 30 minutes, with the page automatically refreshed every 10 minutes)

About weather observations | Map of weather stations | Latest weather observations for WA | Other Formats
Station Details ID: 200284 Name: COCOS ISLAND AIRPORT Lat: -12.19 Lon: 96.83 Height: 3.0 m
Data from the previous 72 hours. | See also: Recent months at Cocos Island
Date/Time
WST
Temp
°C
App
Temp
°C
Dew
Point
Rel
Hum
%
Delta-T
°C
Wind Press
QNH
hPa
Press
MSL
hPa
Rain
since 9 am
mm
Dir
 
Spd
km/h
Gust
km/h
Spd
kts
Gust
kts
26/07:00pm 28.2 30.8 24.0 78 2.9 ESE 17 22 9 12 1009.7 - 4.2
26/06:30pm 28.8 31.6 24.3 76 3.1 ESE 17 22 9 12 1009.5 - 4.2
26/06:00pm 28.9 31.6 24.8 78 2.9 ESE 19 26 10 14 1009.2 - 4.2
26/05:30pm 29.2 32.0 24.9 77 3.0 ESE 19 24 10 13 1009.1 - 4.2
26/05:00pm 29.4 32.5 24.2 73 3.6 ESE 15 20 8 11 1008.9 1008.9 4.2
26/04:30pm 29.8 33.1 24.5 73 3.7 ESE 15 20 8 11 1009.0 - 4.2
26/04:00pm 29.8 33.1 24.5 73 3.7 E 15 19 8 10 1009.1 - 4.2
26/03:30pm 29.6 32.7 24.1 72 3.8 E 15 20 8 11 1009.3 - 4.2
26/03:00pm 29.6 32.2 24.0 72 3.9 E 17 20 9 11 1009.7 - 4.2
26/02:30pm 29.8 32.2 23.7 70 4.2 ENE 17 20 9 11 1009.8 - 4.2
26/02:00pm 29.6 32.5 24.4 73 3.6 E 17 20 9 11 1010.1 1010.1 4.2
26/01:30pm 29.5 32.3 24.3 73 3.6 E 17 20 9 11 1010.3 - 4.2
26/01:00pm 29.0 31.5 23.8 73 3.6 E 17 20 9 11 1010.8 - 4.0
26/12:30pm 28.4 33.3 24.7 80 2.6 S 7 19 4 10 1011.1 - 4.0
26/12:00pm 27.9 30.2 24.4 81 2.4 E 20 33 11 18 1011.2 - 0.0
26/11:30am 29.3 32.7 24.1 73 3.6 E 13 19 7 10 1011.3 - 0.0
26/10:30am 28.6 30.8 24.0 76 3.2 E 19 20 10 11 1011.4 - 3.8
26/10:00am 28.2 31.0 24.3 79 2.7 E 17 19 9 10 1011.3 - 3.8
26/09:30am 28.4 31.3 23.9 76 3.1 E 15 17 8 9 1011.2 - 3.6
26/08:30am 27.1 31.5 24.4 85 1.9 E 9 11 5 6 1010.7 - 3.6
26/08:00am 25.6 30.0 23.8 90 1.2 ESE 7 9 4 5 1010.4 1010.4 3.6
26/07:00am 25.7 29.7 23.8 89 1.3 ENE 9 11 5 6 1009.8 - 3.6
26/06:30am 25.8 27.0 23.2 85 1.8 E 22 30 12 16 1009.6 - 3.6
26/06:00am 26.0 29.5 23.5 86 1.7 ENE 11 13 6 7 1009.4 - 3.6
26/05:30am 26.2 28.5 23.4 84 1.9 ENE 17 22 9 12 1009.4 - 3.6
26/05:00am 26.5 30.6 24.0 86 1.7 E 9 13 5 7 1009.3 1009.3 3.6
26/04:30am 26.6 30.4 24.0 86 1.8 E 11 13 6 7 1009.4 - 3.6
26/04:00am 26.5 30.6 24.0 86 1.7 E 9 13 5 7 1009.4 - 3.6
26/03:30am 26.7 30.4 23.9 84 1.9 E 11 13 6 7 1009.7 - 3.6
26/03:00am 26.8 29.5 23.4 81 2.3 ESE 15 19 8 10 1010.0 - 3.6
26/02:30am 26.8 29.4 23.3 81 2.4 ESE 15 20 8 11 1010.0 - 3.6
26/02:00am 26.8 29.2 23.6 82 2.2 SE 17 20 9 11 1010.4 1010.4 3.6
26/01:30am 26.7 28.9 23.9 84 1.9 SE 19 24 10 13 1010.7 - 3.6
26/01:00am 27.2 29.8 22.6 76 3.1 ESE 13 17 7 9 1010.8 - 3.6
26/12:30am 27.2 29.8 22.6 76 3.1 ESE 13 17 7 9 1010.6 - 3.6
26/12:00am 27.2 30.2 23.4 80 2.6 ESE 13 17 7 9 1010.7 - 3.6
 
Date/Time
WST
Temp
°C
App
Temp
°C
Dew
Point
Rel
Hum
%
Delta-T
°C
Wind Press
QNH
hPa
Press
MSL
hPa
Rain
since 9 am
mm
Dir
 
Spd
km/h
Gust
km/h
Spd
kts
Gust
kts
25/11:30pm 27.2 29.8 22.6 76 3.1 ESE 13 17 7 9 1010.8 - 3.6
25/11:00pm 27.1 31.0 23.6 81 2.4 ESE 9 13 5 7 1011.0 1011.0 3.6
25/10:30pm 27.2 30.1 23.2 79 2.7 ESE 13 15 7 8 1010.9 - 3.6
25/10:00pm 27.0 29.9 23.2 80 2.6 ESE 13 15 7 8 1010.8 - 3.6
25/09:30pm 26.9 29.6 22.8 78 2.8 SE 13 19 7 10 1010.6 - 3.6
25/09:00pm 26.6 30.2 23.1 81 2.4 ESE 9 13 5 7 1010.4 - 3.6
25/08:30pm 26.3 30.7 23.8 86 1.7 ESE 7 9 4 5 1010.0 - 3.6
25/08:00pm 26.2 28.1 23.4 84 1.9 NE 19 39 10 21 1009.7 1009.7 2.8
25/07:30pm 25.9 27.6 23.4 86 1.7 E 20 32 11 17 1009.6 - 2.2
25/07:00pm 26.9 30.2 23.8 83 2.1 E 13 19 7 10 1009.1 - 2.0
25/06:30pm 28.3 31.5 24.4 79 2.7 ESE 15 26 8 14 1008.8 - 2.0
25/06:00pm 28.9 31.4 23.2 71 3.9 ESE 15 20 8 11 1008.4 - 2.0
25/05:30pm 28.9 31.1 23.2 71 3.9 ESE 17 24 9 13 1008.2 - 2.0
25/05:00pm 28.8 31.1 23.4 72 3.7 ESE 17 22 9 12 1008.0 1008.0 2.0
25/04:30pm 28.9 31.1 23.2 71 3.9 ESE 17 22 9 12 1008.0 - 2.0
25/04:00pm 29.0 31.3 22.7 69 4.3 ESE 15 20 8 11 1008.2 - 2.0
25/03:30pm 28.6 30.0 21.8 66 4.6 SE 17 20 9 11 1008.5 - 2.0
25/03:00pm 28.0 30.0 23.0 74 3.4 ESE 17 24 9 13 1008.8 - 2.0
25/02:30pm 27.3 29.4 23.7 81 2.5 ESE 19 26 10 14 1009.1 - 2.0
25/02:00pm 26.9 27.6 22.9 79 2.7 E 24 30 13 16 1009.5 1009.5 2.0
25/01:30pm 25.7 26.9 23.8 89 1.3 E 24 32 13 17 1010.1 - 2.0
25/01:20pm 25.4 26.4 23.5 89 1.3 E 24 33 13 18 1010.3 - 2.0
25/01:00pm 25.4 25.9 23.9 91 1.0 E 28 39 15 21 1010.4 - 1.4
25/12:52pm 27.0 28.9 23.8 82 2.2 SE 20 41 11 22 1010.4 - 0.0
25/12:30pm 27.7 29.4 22.4 73 3.6 SE 17 24 9 13 1010.5 - 0.0
25/12:00pm 29.0 32.1 24.1 75 3.4 E 15 19 8 10 1010.7 - 0.0
25/11:30am 27.4 29.8 23.0 77 3.0 E 15 19 8 10 1011.1 - 0.0
25/11:00am 27.1 29.8 22.8 77 2.9 ESE 13 20 7 11 1011.3 1011.3 62.0
25/10:30am 26.4 28.6 23.3 83 2.1 E 17 20 9 11 1011.0 - 62.0
25/10:00am 25.9 27.5 23.3 85 1.8 ESE 20 28 11 15 1010.8 - 62.0
25/09:30am 25.1 25.0 22.9 87 1.5 ESE 28 35 15 19 1010.9 - 62.0
25/09:22am 25.3 25.7 23.1 87 1.5 SE 26 33 14 18 1010.7 - 62.0
25/09:00am 24.9 24.9 23.1 90 1.2 SE 28 37 15 20 1010.5 - 61.8
25/08:30am 24.6 26.3 23.1 91 1.0 SSE 19 26 10 14 1010.4 - 60.6
25/08:00am 25.0 27.1 23.1 89 1.3 SSE 17 - 9 - - 1010.0 -
25/07:59am 25.0 26.7 23.1 89 1.3 SSE 19 24 10 13 1010.0 - 60.2
25/07:30am 24.7 26.1 22.9 90 1.2 SE 20 26 11 14 1009.6 - 59.6
25/07:00am 24.7 25.9 23.2 91 1.0 SE 22 30 12 16 1009.4 - 59.4
25/06:30am 24.6 27.0 23.7 95 0.6 SSE 17 24 9 13 1009.6 - 59.0
25/06:27am 24.5 26.5 23.6 95 0.6 SSE 19 26 10 14 1009.6 - 59.0
25/06:00am 24.1 27.6 23.5 96 0.4 SE 11 15 6 8 1009.8 - 58.0
25/05:30am 23.9 26.9 23.3 96 0.4 SE 13 20 7 11 1009.7 - 52.8
25/05:00am 23.8 25.4 23.2 96 0.4 SE 20 28 11 15 1009.8 1009.8 34.6
25/04:43am 23.7 23.1 23.3 98 0.3 S 32 41 17 22 1009.6 - 26.8
25/04:30am 23.7 23.4 23.3 98 0.3 SSE 30 43 16 23 1009.5 - 22.6
25/04:21am 23.8 23.1 23.2 96 0.4 SSE 32 41 17 22 1009.5 - 19.4
25/04:11am 23.7 22.9 23.1 96 0.4 SSE 32 41 17 22 1009.5 - 15.8
25/04:00am 23.9 23.8 23.5 98 0.3 SSE 30 46 16 25 1009.5 - 11.2
25/03:50am 24.2 24.4 23.5 96 0.5 SSE 28 39 15 21 1009.6 - 7.2
25/03:30am 24.6 26.6 23.9 96 0.5 SE 20 28 11 15 1009.7 - 6.2
25/03:19am 24.2 24.5 23.6 96 0.4 S 28 37 15 20 1009.8 - 5.6
25/03:00am 24.3 26.0 23.4 95 0.6 SSE 20 28 11 15 1010.1 - 1.6
25/02:45am 24.3 25.9 23.3 94 0.7 SSE 20 26 11 14 1010.2 - 0.4
25/02:30am 25.2 28.4 23.7 91 1.0 ESE 13 19 7 10 1010.3 - 0.2
25/02:00am 25.1 28.4 23.2 89 1.3 ENE 11 15 6 8 1010.6 1010.6 0.2
25/01:30am 25.0 27.0 22.9 88 1.4 ENE 17 20 9 11 1011.0 - 0.2
25/01:00am 25.1 27.6 23.8 92 0.9 E 17 20 9 11 1011.3 - 0.2
25/12:32am 24.7 25.5 23.1 91 1.1 SE 24 30 13 16 1011.5 - 0.2
25/12:30am 24.7 25.5 23.1 91 1.1 SE 24 32 13 17 1011.5 - 0.2
25/12:00am 24.6 23.3 23.1 91 1.0 SE 35 43 19 23 1011.6 - 0.0
 
Date/Time
WST
Temp
°C
App
Temp
°C
Dew
Point
Rel
Hum
%
Delta-T
°C
Wind Press
QNH
hPa
Press
MSL
hPa
Rain
since 9 am
mm
Dir
 
Spd
km/h
Gust
km/h
Spd
kts
Gust
kts
24/11:57pm 24.6 23.4 23.3 92 0.9 ESE 35 46 19 25 1011.6 - 0.0
24/11:50pm 25.0 24.0 23.7 92 0.9 SE 35 46 19 25 1011.6 - 0.0
24/11:40pm 25.0 24.6 23.7 92 0.9 SE 32 46 17 25 1011.6 - 0.0
24/11:30pm 25.8 28.1 24.4 92 1.0 ESE 20 28 11 15 1011.6 - 0.0
24/11:27pm 25.9 28.7 24.3 91 1.1 ESE 17 26 9 14 1011.6 - 0.0
24/11:00pm 26.2 29.4 23.1 83 2.1 SE 11 17 6 9 1011.6 1011.6 0.0
24/10:30pm 26.0 29.2 23.7 87 1.6 SSE 13 20 7 11 1011.6 - 0.0
24/10:00pm 26.2 28.5 23.4 84 1.9 SE 17 20 9 11 1011.4 - 0.0
24/09:30pm 26.5 28.5 23.0 81 2.4 SE 17 20 9 11 1011.1 - 0.0
24/09:00pm 26.9 30.3 24.0 84 2.0 ESE 13 17 7 9 1011.0 - 0.0
24/08:30pm 26.8 30.8 23.7 83 2.1 ESE 9 11 5 6 1010.6 - 0.0
24/08:00pm 26.6 29.8 23.1 81 2.4 ESE 11 13 6 7 1010.2 1010.2 0.0
24/07:30pm 26.2 29.4 23.0 82 2.2 SE 11 15 6 8 1009.9 - 0.0
24/07:00pm 26.3 28.4 22.4 79 2.6 SE 15 20 8 11 1009.6 - 0.0
24/06:30pm 26.2 28.1 23.4 84 1.9 ESE 19 26 10 14 1009.5 - 0.0
24/06:05pm 26.4 28.0 23.3 83 2.1 ESE 20 28 11 15 1009.6 - 0.0
24/06:00pm 26.4 28.0 23.2 82 2.2 SE 20 28 11 15 1009.6 - 0.0
24/05:47pm 25.9 27.3 24.2 90 1.2 SSE 24 33 13 18 1009.6 - 0.0
24/05:30pm 28.0 29.9 23.8 78 2.9 ESE 20 28 11 15 1009.3 - 0.0
24/05:00pm 29.1 30.8 23.4 71 3.9 SSE 20 24 11 13 1008.9 1008.9 0.0
24/04:30pm 29.3 30.9 23.3 70 4.1 SE 20 28 11 15 1008.8 - 0.0
24/04:00pm 29.7 31.2 23.1 67 4.5 SE 20 28 11 15 1008.9 - 0.0
24/03:30pm 29.6 31.2 23.3 69 4.3 SE 20 28 11 15 1009.1 - 0.0
24/03:00pm 29.3 30.7 22.9 68 4.4 SE 20 26 11 14 1009.5 - 0.0
24/02:30pm 29.2 30.7 23.1 69 4.2 SE 20 26 11 14 1009.6 - 0.0
24/02:00pm 29.2 30.5 22.7 68 4.4 ESE 20 26 11 14 1009.9 1009.9 0.0
24/01:30pm 29.5 30.9 22.9 67 4.5 SE 20 26 11 14 1010.2 - 0.0
24/01:00pm 29.6 30.4 21.7 62 5.3 SSE 20 26 11 14 1010.6 - 0.0
24/12:30pm 29.1 30.9 22.6 68 4.4 SE 17 22 9 12 1011.0 - 0.0
24/12:00pm 29.2 31.3 22.4 66 4.6 SE 15 20 8 11 1011.5 - 0.0
24/11:30am 29.2 31.5 22.7 68 4.4 SE 15 20 8 11 1011.6 - 0.0
24/11:00am 28.5 30.9 22.9 71 3.8 SE 15 20 8 11 1011.7 1011.7 -
24/10:30am 28.2 30.7 22.4 71 3.9 SE 13 17 7 9 1011.7 - -
24/10:00am 27.8 29.9 23.1 75 3.2 SE 17 22 9 12 1011.8 - -
24/09:30am 27.4 29.3 22.7 75 3.2 SE 17 22 9 12 1011.5 - -
24/09:00am 27.2 29.2 22.9 77 2.9 SE 17 20 9 11 1011.2 - -
24/08:30am 26.7 28.0 22.4 77 2.9 SE 19 24 10 13 1011.0 - -
24/08:00am 26.4 27.6 22.5 79 2.6 ESE 20 28 11 15 1010.8 1010.8 -
24/07:30am 26.1 27.1 22.2 79 2.6 SE 20 28 11 15 1010.6 - -
24/07:00am 26.2 27.7 23.0 82 2.2 ESE 20 26 11 14 1010.6 - -
24/06:30am 26.3 27.7 22.8 81 2.4 ESE 20 24 11 13 1010.5 - -
24/06:00am 26.4 28.4 23.0 81 2.3 E 17 26 9 14 1010.5 - -
24/05:30am 26.3 28.1 22.6 80 2.5 ESE 17 22 9 12 1010.6 - -
24/05:00am 26.2 28.2 23.0 82 2.2 ESE 17 24 9 13 1010.4 1010.4 -
24/04:30am 26.4 28.8 22.9 81 2.4 ESE 15 24 8 13 1010.7 - -
24/04:00am 26.4 28.8 23.0 81 2.3 ESE 15 20 8 11 1010.6 - -
24/03:30am 26.7 28.9 23.3 81 2.3 ESE 17 24 9 13 1010.8 - -
24/03:00am 26.9 28.3 22.5 77 3.0 ESE 19 24 10 13 1011.1 - -
24/02:30am 26.8 29.3 23.1 80 2.5 ESE 15 20 8 11 1011.3 - -
24/02:00am 26.6 29.1 23.2 81 2.3 ESE 15 22 8 12 1011.9 1011.9 -
24/01:33am 25.4 29.0 23.0 86 1.6 E 9 13 5 7 1011.9 - -
24/01:30am 25.3 28.4 22.8 86 1.7 E 11 20 6 11 1011.9 - -
24/01:03am 25.3 27.2 22.8 86 1.7 SSE 17 24 9 13 1012.3 - -
24/01:00am 25.5 27.5 23.0 86 1.7 SSE 17 24 9 13 1012.2 - -
24/12:30am 25.9 27.1 22.2 80 2.5 E 19 30 10 16 1012.4 - -
24/12:26am 26.1 27.2 22.4 80 2.5 E 20 30 11 16 1012.4 - -
24/12:14am 25.4 26.1 22.3 83 2.1 SE 22 30 12 16 1012.5 - -
24/12:00am 25.9 26.6 22.9 83 2.0 ESE 24 32 13 17 1012.4 - -
 
Date/Time
WST
Temp
°C
App
Temp
°C
Dew
Point
Rel
Hum
%
Delta-T
°C
Wind Press
QNH
hPa
Press
MSL
hPa
Rain
since 9 am
mm
Dir
 
Spd
km/h
Gust
km/h
Spd
kts
Gust
kts
23/11:36pm 26.5 28.6 23.1 81 2.3 E 17 24 9 13 1012.3 - -
23/11:30pm 26.2 28.6 23.6 85 1.8 ESE 17 20 9 11 1012.2 - -
23/11:18pm 25.8 25.2 22.7 83 2.1 ESE 30 44 16 24 1012.3 - -
23/11:14pm 26.4 25.8 22.7 80 2.5 ESE 30 44 16 24 1012.2 - -
23/11:00pm 27.6 29.5 22.7 74 3.3 ESE 17 20 9 11 1012.1 1012.1 -
23/10:30pm 27.5 29.3 22.5 74 3.4 ESE 17 20 9 11 1012.1 - -
23/10:00pm 27.6 28.9 22.4 73 3.5 ESE 19 24 10 13 1012.2 - -
23/09:30pm 27.6 29.1 22.7 74 3.3 ESE 19 24 10 13 1011.9 - -
23/09:00pm 27.7 28.8 22.4 73 3.6 ESE 20 26 11 14 1011.7 - -

Other Formats:

Comma delimited format used in spreadsheet applications
http://www.bom.gov.au/fwo/IDW60801/IDW60801.96996.axf

JavaScript Object Notation format (JSON) in row-major order
http://www.bom.gov.au/fwo/IDW60801/IDW60801.96996.json